Estación Meteorológica Peña el Pijo (Robertgarden) [ 11/20/18 01:47:05 CET ]

Fecha Hora Presion(HPa) Temp (°C) Humedad % Rocio (°C) Viento ( m/s) Direccion Lluvia 1Hora(mm) Lluvia 24H(mm) LLuvia Total(mm)
2018-Mar-21 01:01:50 1006.200 1.6 74 -2.6       1.03 176.12
2018-Mar-21 02:02:24 1006.000 0.8 75 -3.2       1.03 176.12
2018-Mar-21 03:02:05 1006.100 -0.2 75 -4.1       1.03 176.12
2018-Mar-21 04:02:22 1006.000 -0.6 75 -4.5       1.03 176.12
2018-Mar-21 05:02:24 1006.200 -1.1 74 -5.2       1.03 176.12
2018-Mar-21 06:02:04 1006.400 -2.1 74 -6.1       1.03 176.12
2018-Mar-21 07:01:46 1006.700 -2.6 75 -6.4       1.03 176.12
2018-Mar-21 08:02:00 1007.100 -2.9 76 -6.6       1.03 176.12
2018-Mar-21 09:01:53 1007.300 1.1 73 -3.3       1.03 176.12
2018-Mar-21 10:01:51 1007.800 4.1 63 -2.4 0.7 WNW   1.03 176.12
2018-Mar-21 11:01:40 1007.400 7.0 50 -2.7       1.03 176.12
2018-Mar-21 12:01:59 1007.600 7.9 42 -4.3 0.3 NNE   1.03 176.12
2018-Mar-21 13:01:49 1007.600 7.6 40 -5.2       1.03 176.12
2018-Mar-21 14:01:36 1007.300 8.6 38 -5.0 1.9 NNW   0.51 176.12
2018-Mar-21 15:01:49 1007.000 10.5 36 -4.1       0.51 176.12
2018-Mar-21 16:02:01 1007.000 9.4 38 -4.3         176.12
2018-Mar-21 17:01:32 1006.900 9.7 35 -5.2 5.4 ENE     176.12
2018-Mar-21 18:01:45 1007.200 8.6 35 -6.1 1.3 ENE     176.12
2018-Mar-21 19:01:38 1007.700 6.3 41 -6.0 0.5 WNW     176.12
2018-Mar-21 20:01:32 1008.600 5.4 41 -6.8         176.12
2018-Mar-21 21:01:37 1009.200 3.9 45 -7.0         176.12
2018-Mar-21 22:01:26 1009.700 2.6 48 -7.3         176.12
2018-Mar-21 23:01:23 1009.600 1.0 53 -7.6         176.12

Temperatura Máxima:10°    Temperatura Mínima:-2°
Presión Máxima:1009.700 Hpa    Presión Mínima:1006.000 Hpa


Volver